createdAt,value
2022-08-14T00:02:18.739Z,9.90
2022-08-14T00:04:47.389Z,12.45
2022-08-14T00:07:15.746Z,11.45
2022-08-14T00:10:02.202Z,9.23
2022-08-14T00:12:39.482Z,11.70
2022-08-14T00:15:15.157Z,11.77
2022-08-14T00:17:48.221Z,9.00
2022-08-14T00:20:30.465Z,8.15
2022-08-14T00:23:11.865Z,10.82
2022-08-14T00:25:42.800Z,9.13
2022-08-14T00:28:15.020Z,14.85
2022-08-14T00:30:45.431Z,9.93
2022-08-14T00:33:16.038Z,10.90
2022-08-14T00:36:36.591Z,9.82
2022-08-14T00:38:35.064Z,8.68
2022-08-14T00:41:05.235Z,10.93
2022-08-14T00:43:33.722Z,8.35
2022-08-14T00:46:07.989Z,10.05
2022-08-14T00:48:38.487Z,8.43
2022-08-14T00:51:08.904Z,10.73
2022-08-14T00:53:39.909Z,9.43
2022-08-14T00:56:15.410Z,8.52
2022-08-14T00:58:45.433Z,9.00
2022-08-14T01:01:19.252Z,12.43
2022-08-14T01:03:52.873Z,11.85
2022-08-14T01:06:21.845Z,10.85
2022-08-14T01:08:58.057Z,10.00
2022-08-14T01:11:35.494Z,8.27
2022-08-14T01:14:25.684Z,10.10
2022-08-14T01:16:55.716Z,9.70
2022-08-14T01:19:41.817Z,10.23
2022-08-14T01:22:18.650Z,8.70
2022-08-14T01:24:48.472Z,9.05
2022-08-14T01:27:22.356Z,7.13
2022-08-14T01:29:59.259Z,7.28
2022-08-14T01:32:35.534Z,8.60
2022-08-14T01:35:18.769Z,7.63
2022-08-14T01:37:56.505Z,7.93
2022-08-14T01:40:37.084Z,9.57
2022-08-14T01:43:18.439Z,7.72
2022-08-14T01:45:57.801Z,7.55
2022-08-14T01:48:36.992Z,9.65
2022-08-14T01:51:19.297Z,7.55
2022-08-14T01:53:55.330Z,8.32
2022-08-14T01:56:37.162Z,9.10
2022-08-14T01:59:09.605Z,7.60
2022-08-14T02:01:41.930Z,9.90
2022-08-14T02:04:54.774Z,10.57
2022-08-14T02:07:15.661Z,9.35
2022-08-14T02:09:45.768Z,8.73
2022-08-14T02:12:26.497Z,10.27
2022-08-14T02:15:00.308Z,10.07
2022-08-14T02:17:31.050Z,11.73
2022-08-14T02:20:00.120Z,12.40
2022-08-14T02:22:33.406Z,10.40
2022-08-14T02:25:04.130Z,13.32
2022-08-14T02:28:24.093Z,10.23
2022-08-14T02:30:20.813Z,11.18
2022-08-14T02:32:50.947Z,9.27
2022-08-14T02:35:21.812Z,8.43
2022-08-14T02:37:50.877Z,12.43
2022-08-14T02:40:32.148Z,8.07
2022-08-14T02:43:03.762Z,8.60
2022-08-14T02:45:38.414Z,9.02
2022-08-14T02:49:01.918Z,12.45
2022-08-14T02:51:05.091Z,10.35
2022-08-14T02:53:33.631Z,9.75
2022-08-14T02:56:29.667Z,8.55
2022-08-14T02:59:02.086Z,8.98
2022-08-14T03:01:43.628Z,12.18
2022-08-14T03:04:20.699Z,9.82
2022-08-14T03:06:57.788Z,10.98
2022-08-14T03:09:42.299Z,10.73
2022-08-14T03:12:31.078Z,9.95
2022-08-14T03:15:00.592Z,10.07
2022-08-14T03:17:31.698Z,8.23
2022-08-14T03:20:00.485Z,9.27
2022-08-14T03:22:29.956Z,9.85
2022-08-14T03:24:58.380Z,10.15
2022-08-14T03:27:47.968Z,9.63
2022-08-14T03:30:23.425Z,11.65
2022-08-14T03:32:52.445Z,10.43
2022-08-14T03:35:24.466Z,11.48
2022-08-14T03:39:14.329Z,9.50
2022-08-14T03:40:58.925Z,11.18
2022-08-14T03:43:32.444Z,11.00
2022-08-14T03:46:01.355Z,12.68
2022-08-14T03:48:40.449Z,9.77
2022-08-14T03:51:10.582Z,11.48
2022-08-14T03:53:43.556Z,10.82
2022-08-14T03:56:15.071Z,12.25
2022-08-14T03:58:56.941Z,10.25
2022-08-14T04:01:29.501Z,11.85
2022-08-14T04:04:10.839Z,10.73
2022-08-14T04:06:42.610Z,9.65
2022-08-14T04:09:16.910Z,10.98
2022-08-14T04:11:46.351Z,9.95
2022-08-14T04:14:16.553Z,11.93
2022-08-14T04:16:47.498Z,10.00
2022-08-14T04:19:17.464Z,12.13
2022-08-14T04:22:01.772Z,9.68
2022-08-14T04:24:38.224Z,12.57
2022-08-14T04:27:09.602Z,10.23
2022-08-14T04:29:40.738Z,11.35
2022-08-14T04:32:59.212Z,10.80
2022-08-14T04:35:01.101Z,13.15
2022-08-14T04:37:53.613Z,9.90
2022-08-14T04:40:40.434Z,11.40
2022-08-14T04:43:38.380Z,13.60
2022-08-14T04:46:54.799Z,10.38
2022-08-14T04:49:00.435Z,10.60
2022-08-14T04:51:37.492Z,12.38
2022-08-14T04:54:16.682Z,9.57
2022-08-14T04:56:45.835Z,10.85
2022-08-14T04:59:14.177Z,11.55
2022-08-14T05:01:49.050Z,12.60
2022-08-14T05:04:20.967Z,9.35
2022-08-14T05:06:53.711Z,12.10
2022-08-14T05:09:23.879Z,9.57
2022-08-14T05:11:53.116Z,17.60
2022-08-14T05:14:45.700Z,11.98
2022-08-14T05:17:14.369Z,11.02
2022-08-14T05:19:44.202Z,12.43
2022-08-14T05:22:31.376Z,11.98
2022-08-14T05:25:00.273Z,13.63
2022-08-14T05:27:30.899Z,12.85
2022-08-14T05:30:07.172Z,14.05
2022-08-14T05:32:40.910Z,13.93
2022-08-14T05:35:12.533Z,12.32
2022-08-14T05:37:54.427Z,15.15
2022-08-14T05:40:23.546Z,13.63
2022-08-14T05:42:53.121Z,13.98
2022-08-14T05:45:21.642Z,13.07
2022-08-14T05:47:52.538Z,12.63
2022-08-14T05:50:21.050Z,14.93
2022-08-14T05:52:52.440Z,17.42
2022-08-14T05:55:23.002Z,13.10
2022-08-14T05:57:57.966Z,15.15
2022-08-14T06:00:38.767Z,14.23
2022-08-14T06:03:15.169Z,12.88
2022-08-14T06:05:44.111Z,14.25
2022-08-14T06:08:31.428Z,16.27
2022-08-14T06:11:07.491Z,13.27
2022-08-14T06:13:41.095Z,13.63
2022-08-14T06:16:17.699Z,16.40
2022-08-14T06:18:52.359Z,17.00
2022-08-14T06:21:21.594Z,14.80
2022-08-14T06:23:51.663Z,21.38
2022-08-14T06:26:22.064Z,15.77
2022-08-14T06:28:52.285Z,15.85
2022-08-14T06:31:22.701Z,16.60
2022-08-14T06:35:10.610Z,20.27
2022-08-14T06:36:41.313Z,16.58
2022-08-14T06:39:10.802Z,13.35
2022-08-14T06:41:58.060Z,22.55
2022-08-14T06:44:30.721Z,16.73
2022-08-14T06:47:02.250Z,16.67
2022-08-14T06:49:40.637Z,15.77
2022-08-14T06:52:15.305Z,16.10
2022-08-14T06:54:44.958Z,17.50
2022-08-14T06:57:14.198Z,17.33
2022-08-14T06:59:44.596Z,17.35
2022-08-14T07:02:30.679Z,13.43
2022-08-14T07:05:22.848Z,17.50
2022-08-14T07:07:52.669Z,17.95
2022-08-14T07:10:25.443Z,16.88
2022-08-14T07:13:03.890Z,16.08
2022-08-14T07:15:39.687Z,14.85
2022-08-14T07:18:12.255Z,16.05
2022-08-14T07:20:44.347Z,15.45
2022-08-14T07:23:19.919Z,8.05
2022-08-14T07:25:51.730Z,10.80
2022-08-14T07:28:23.689Z,9.57
2022-08-14T07:30:56.308Z,7.05
2022-08-14T07:33:29.904Z,9.18
2022-08-14T07:36:03.360Z,10.35
2022-08-14T07:38:52.641Z,7.80
2022-08-14T07:41:21.054Z,8.77
2022-08-14T07:43:56.083Z,8.20
2022-08-14T07:46:28.255Z,10.13
2022-08-14T07:48:58.141Z,9.05
2022-08-14T07:51:36.850Z,10.63
2022-08-14T07:54:11.190Z,5.47
2022-08-14T07:56:47.880Z,3.05
2022-08-14T07:59:40.604Z,4.35
2022-08-14T08:02:17.463Z,9.13
2022-08-14T08:04:54.161Z,6.13
2022-08-14T08:07:29.891Z,3.75
2022-08-14T08:10:00.818Z,3.20
2022-08-14T08:12:32.625Z,6.07
2022-08-14T08:15:07.062Z,7.45
2022-08-14T08:17:38.725Z,5.07
2022-08-14T08:20:11.576Z,4.60
2022-08-14T08:22:48.218Z,3.97
2022-08-14T08:25:19.005Z,3.70
2022-08-14T08:27:57.848Z,4.50
2022-08-14T08:30:27.180Z,4.80
2022-08-14T08:33:02.972Z,6.47
2022-08-14T08:35:47.151Z,6.13
2022-08-14T08:39:18.619Z,5.65
2022-08-14T08:41:13.175Z,4.93
2022-08-14T08:43:47.084Z,6.15
2022-08-14T08:46:18.838Z,4.90
2022-08-14T08:48:54.097Z,4.90
2022-08-14T08:51:30.489Z,7.32
2022-08-14T08:54:03.411Z,5.18
2022-08-14T08:56:42.096Z,6.70
2022-08-14T08:59:20.385Z,4.75
2022-08-14T09:01:56.499Z,6.55
2022-08-14T09:04:27.334Z,6.22
2022-08-14T09:07:09.551Z,7.32
2022-08-14T09:09:53.597Z,7.15
2022-08-14T09:12:23.892Z,5.72
2022-08-14T09:14:53.386Z,6.50
2022-08-14T09:17:25.827Z,6.78
2022-08-14T09:19:55.324Z,6.50
2022-08-14T09:22:35.138Z,5.55
2022-08-14T09:25:07.804Z,5.47
2022-08-14T09:27:37.652Z,6.63
2022-08-14T09:30:30.942Z,6.05
2022-08-14T09:33:36.333Z,7.72
2022-08-14T09:36:36.873Z,6.88
2022-08-14T09:39:22.822Z,8.13
2022-08-14T09:42:20.943Z,8.40
2022-08-14T09:45:11.764Z,6.43
2022-08-14T09:47:46.699Z,7.40
2022-08-14T09:50:25.686Z,8.85
2022-08-14T09:52:59.589Z,6.10
2022-08-14T09:55:36.852Z,7.60
2022-08-14T09:58:20.095Z,5.07
2022-08-14T10:00:54.696Z,4.88
2022-08-14T10:03:33.940Z,7.30
2022-08-14T10:06:10.603Z,7.40
2022-08-14T10:08:51.166Z,7.93
2022-08-14T10:11:23.043Z,7.15
2022-08-14T10:13:56.205Z,7.93
2022-08-14T10:16:33.803Z,7.13
2022-08-14T10:19:07.233Z,7.30
2022-08-14T10:21:38.569Z,10.98
2022-08-14T10:24:09.009Z,8.18
2022-08-14T10:26:43.622Z,9.80
2022-08-14T10:29:18.532Z,9.55
2022-08-14T10:32:18.297Z,7.22
2022-08-14T10:35:14.055Z,7.88
2022-08-14T10:37:48.588Z,7.25
2022-08-14T10:40:38.387Z,7.80
2022-08-14T10:43:23.203Z,6.93
2022-08-14T10:46:21.749Z,7.78
2022-08-14T10:48:58.999Z,9.45
2022-08-14T10:51:30.256Z,8.43
2022-08-14T10:54:17.153Z,10.93
2022-08-14T10:56:58.733Z,9.10
2022-08-14T10:59:30.594Z,11.10
2022-08-14T11:02:02.729Z,11.50
2022-08-14T11:04:32.122Z,11.88
2022-08-14T11:07:05.887Z,10.93
2022-08-14T11:09:35.292Z,9.27
2022-08-14T11:12:33.236Z,7.93
2022-08-14T11:14:59.402Z,8.52
2022-08-14T11:17:31.743Z,8.60
2022-08-14T11:20:03.411Z,7.90
2022-08-14T11:22:56.626Z,10.52
2022-08-14T11:25:23.857Z,7.53
2022-08-14T11:27:54.945Z,8.52
2022-08-14T11:30:49.108Z,8.65
2022-08-14T11:33:16.383Z,10.38
2022-08-14T11:35:49.838Z,11.52
2022-08-14T11:38:20.133Z,6.72
2022-08-14T11:40:50.387Z,7.03
2022-08-14T11:43:29.160Z,9.57
2022-08-14T11:45:58.537Z,7.10
2022-08-14T11:49:01.876Z,10.15
2022-08-14T11:51:26.186Z,7.10
2022-08-14T11:54:03.520Z,8.38
2022-08-14T11:56:37.294Z,11.07
2022-08-14T11:59:10.268Z,6.25
2022-08-14T12:01:41.147Z,8.60
2022-08-14T12:04:21.634Z,8.38
2022-08-14T12:07:01.879Z,12.13
2022-08-14T12:09:35.420Z,11.30
2022-08-14T12:12:16.239Z,11.80
2022-08-14T12:15:03.574Z,9.52
2022-08-14T12:17:49.336Z,9.35
2022-08-14T12:20:30.223Z,11.50
2022-08-14T12:23:05.191Z,8.80
2022-08-14T12:25:35.157Z,10.07
2022-08-14T12:28:27.136Z,10.25
2022-08-14T12:31:00.266Z,10.50
2022-08-14T12:33:33.385Z,10.40
2022-08-14T12:36:06.298Z,9.43
2022-08-14T12:38:43.614Z,10.45
2022-08-14T12:41:16.320Z,8.57
2022-08-14T12:43:59.439Z,14.93
2022-08-14T12:46:30.595Z,9.40
2022-08-14T12:49:06.439Z,10.68
2022-08-14T12:51:38.146Z,11.93
2022-08-14T12:54:27.204Z,10.18
2022-08-14T12:57:06.334Z,14.35
2022-08-14T12:59:37.289Z,11.15
2022-08-14T13:02:25.371Z,10.45
2022-08-14T13:04:56.571Z,13.75
2022-08-14T13:07:32.642Z,9.75
2022-08-14T13:10:12.774Z,12.07
2022-08-14T13:13:12.674Z,11.20
2022-08-14T13:15:41.809Z,12.55
2022-08-14T13:18:16.062Z,9.38
2022-08-14T13:20:49.459Z,11.63
2022-08-14T13:23:32.138Z,10.85
2022-08-14T13:26:02.829Z,11.32
2022-08-14T13:28:34.153Z,8.38
2022-08-14T13:31:10.935Z,11.25
2022-08-14T13:33:41.168Z,6.90
2022-08-14T13:36:23.642Z,9.18
2022-08-14T13:38:56.384Z,9.02
2022-08-14T13:41:36.124Z,10.27
2022-08-14T13:44:05.418Z,9.68
2022-08-14T13:46:44.505Z,8.68
2022-08-14T13:49:15.380Z,9.80
2022-08-14T13:51:48.874Z,10.38
2022-08-14T13:54:25.247Z,11.32
2022-08-14T13:56:55.672Z,10.40
2022-08-14T13:59:38.042Z,11.77
2022-08-14T14:02:08.831Z,13.32
2022-08-14T14:04:41.519Z,9.05
2022-08-14T14:07:16.020Z,10.63
2022-08-14T14:09:51.007Z,10.48
2022-08-14T14:12:36.453Z,11.30
2022-08-14T14:15:11.742Z,8.38
2022-08-14T14:17:40.955Z,7.05
2022-08-14T14:20:35.973Z,10.57
2022-08-14T14:23:09.514Z,8.77
2022-08-14T14:25:51.235Z,8.23
2022-08-14T14:28:32.611Z,10.02
2022-08-14T14:31:06.879Z,8.32
2022-08-14T14:33:52.078Z,11.88
2022-08-14T14:36:24.387Z,8.20
2022-08-14T14:38:54.324Z,9.00
2022-08-14T14:41:37.600Z,7.07
2022-08-14T14:44:09.228Z,10.93
2022-08-14T14:46:41.659Z,6.55
2022-08-14T14:49:14.654Z,11.48
2022-08-14T14:51:46.632Z,7.25
2022-08-14T14:54:31.493Z,7.47
2022-08-14T14:57:09.035Z,8.40
2022-08-14T14:59:40.150Z,7.63
2022-08-14T15:02:11.902Z,11.23
2022-08-14T15:04:43.474Z,10.95
2022-08-14T15:07:13.115Z,8.63
2022-08-14T15:09:44.876Z,7.03
2022-08-14T15:12:52.154Z,7.78
2022-08-14T15:15:08.820Z,7.72
2022-08-14T15:17:42.477Z,7.65
2022-08-14T15:20:17.404Z,8.30
2022-08-14T15:23:01.104Z,8.88
2022-08-14T15:25:41.054Z,10.10
2022-08-14T15:28:13.154Z,8.45
2022-08-14T15:30:50.967Z,9.07
2022-08-14T15:34:01.064Z,7.03
2022-08-14T15:36:29.369Z,6.88
2022-08-14T15:38:59.607Z,10.77
2022-08-14T15:41:41.203Z,6.78
2022-08-14T15:44:25.284Z,10.43
2022-08-14T15:46:56.322Z,6.65
2022-08-14T15:49:34.434Z,6.65
2022-08-14T15:52:04.988Z,8.45
2022-08-14T15:54:33.979Z,7.13
2022-08-14T15:57:06.229Z,7.07
2022-08-14T15:59:57.043Z,8.98
2022-08-14T16:02:27.951Z,9.07
2022-08-14T16:04:57.185Z,6.13
2022-08-14T16:07:27.356Z,10.68
2022-08-14T16:10:27.715Z,9.45
2022-08-14T16:12:47.745Z,8.75
2022-08-14T16:15:21.118Z,11.05
2022-08-14T16:17:50.420Z,6.57
2022-08-14T16:20:41.767Z,8.63
2022-08-14T16:23:11.686Z,7.25
2022-08-14T16:25:41.629Z,6.32
2022-08-14T16:28:27.025Z,11.77
2022-08-14T16:31:00.634Z,8.48
2022-08-14T16:33:58.930Z,8.98
2022-08-14T16:36:30.138Z,7.63
2022-08-14T16:39:01.967Z,9.32
2022-08-14T16:41:30.458Z,9.15
2022-08-14T16:44:02.532Z,9.55
2022-08-14T16:46:38.175Z,8.52
2022-08-14T16:49:10.926Z,12.45
2022-08-14T16:51:40.798Z,9.70
2022-08-14T16:54:33.994Z,6.50
2022-08-14T16:57:16.258Z,8.70
2022-08-14T16:59:57.180Z,8.60
2022-08-14T17:02:36.834Z,8.68
2022-08-14T17:05:21.940Z,16.17
2022-08-14T17:08:31.914Z,9.75
2022-08-14T17:11:09.997Z,8.35
2022-08-14T17:13:58.517Z,7.25
2022-08-14T17:16:37.708Z,8.27
2022-08-14T17:19:11.592Z,9.25
2022-08-14T17:21:47.401Z,7.70
2022-08-14T17:24:57.803Z,7.30
2022-08-14T17:27:08.191Z,11.18
2022-08-14T17:29:44.673Z,10.93
2022-08-14T17:32:29.518Z,10.10
2022-08-14T17:35:16.443Z,9.65
2022-08-14T17:37:56.010Z,8.35
2022-08-14T17:40:30.799Z,9.00
2022-08-14T17:43:02.054Z,8.15
2022-08-14T17:45:46.691Z,7.35
2022-08-14T17:49:15.718Z,9.25
2022-08-14T17:51:23.641Z,8.10
2022-08-14T17:54:02.483Z,8.75
2022-08-14T17:56:36.187Z,9.07
2022-08-14T17:59:07.466Z,7.60
2022-08-14T18:01:40.858Z,9.82
2022-08-14T18:04:24.653Z,9.85
2022-08-14T18:07:08.760Z,8.45
2022-08-14T18:09:40.275Z,10.43
2022-08-14T18:12:36.819Z,9.20
2022-08-14T18:15:16.236Z,8.20
2022-08-14T18:17:52.484Z,6.97
2022-08-14T18:21:42.625Z,7.18
2022-08-14T18:23:15.477Z,6.95
2022-08-14T18:25:52.105Z,9.65
2022-08-14T18:28:47.975Z,7.35
2022-08-14T18:31:43.553Z,7.85
2022-08-14T18:34:31.959Z,7.60
2022-08-14T18:37:17.593Z,9.13
2022-08-14T18:40:03.366Z,7.97
2022-08-14T18:42:45.636Z,9.45
2022-08-14T18:45:19.009Z,7.07
2022-08-14T18:48:14.593Z,8.38
2022-08-14T18:50:54.177Z,7.45
2022-08-14T18:53:24.342Z,8.55
2022-08-14T18:55:59.996Z,7.85
2022-08-14T18:58:46.449Z,13.88
2022-08-14T19:01:25.125Z,14.55
2022-08-14T19:04:01.069Z,9.43
2022-08-14T19:06:56.278Z,14.52
2022-08-14T19:09:58.270Z,12.53
2022-08-14T19:13:11.555Z,13.55
2022-08-14T19:15:44.353Z,11.90
2022-08-14T19:18:38.417Z,9.30
2022-08-14T19:21:13.067Z,15.20
2022-08-14T19:23:44.789Z,11.98
2022-08-14T19:26:36.005Z,11.45
2022-08-14T19:29:35.976Z,9.65
2022-08-14T19:32:22.582Z,12.85
2022-08-14T19:34:52.493Z,14.82
2022-08-14T19:37:47.806Z,17.10
2022-08-14T19:40:31.706Z,17.73
2022-08-14T19:43:06.327Z,16.63
2022-08-14T19:45:38.193Z,15.38
2022-08-14T19:48:14.155Z,14.70
2022-08-14T19:50:46.746Z,10.98
2022-08-14T19:53:18.323Z,12.45
2022-08-14T19:55:59.609Z,16.35
2022-08-14T19:58:54.994Z,13.23
2022-08-14T20:01:37.085Z,12.77
2022-08-14T20:04:44.929Z,14.40
2022-08-14T20:07:01.901Z,14.07
2022-08-14T20:11:11.599Z,11.32
2022-08-14T20:12:36.546Z,11.25
2022-08-14T20:15:21.184Z,12.32
2022-08-14T20:17:53.058Z,16.70
2022-08-14T20:20:31.706Z,13.23
2022-08-14T20:23:11.273Z,12.30
2022-08-14T20:25:45.539Z,13.63
2022-08-14T20:28:32.069Z,9.35
2022-08-14T20:31:15.821Z,11.10
2022-08-14T20:34:06.779Z,8.90
2022-08-14T20:36:40.457Z,10.60
2022-08-14T20:39:15.043Z,10.63
2022-08-14T20:41:49.833Z,8.65
2022-08-14T20:44:39.176Z,9.98
2022-08-14T20:47:08.382Z,10.32
2022-08-14T20:49:38.146Z,9.90
2022-08-14T20:52:19.215Z,8.88
2022-08-14T20:54:51.451Z,11.55
2022-08-14T20:57:20.958Z,11.85
2022-08-14T20:59:53.614Z,11.20
2022-08-14T21:02:50.237Z,8.27
2022-08-14T21:05:22.559Z,9.70
2022-08-14T21:08:08.400Z,9.73
2022-08-14T21:10:54.980Z,12.00
2022-08-14T21:14:09.236Z,11.10
2022-08-14T21:16:25.703Z,8.73
2022-08-14T21:19:06.239Z,10.48
2022-08-14T21:21:41.898Z,10.40
2022-08-14T21:24:38.953Z,10.27
2022-08-14T21:27:12.437Z,12.00
2022-08-14T21:29:49.855Z,8.77
2022-08-14T21:32:47.070Z,10.95
2022-08-14T21:35:22.620Z,9.23
2022-08-14T21:37:52.622Z,10.07
2022-08-14T21:40:41.195Z,9.10
2022-08-14T21:43:17.831Z,8.23
2022-08-14T21:45:53.130Z,10.93
2022-08-14T21:48:25.395Z,9.63
2022-08-14T21:51:01.789Z,9.48
2022-08-14T21:53:58.817Z,6.90
2022-08-14T21:56:37.149Z,7.32
2022-08-14T21:59:09.630Z,9.70
2022-08-14T22:02:00.460Z,7.75
2022-08-14T22:04:32.661Z,9.60
2022-08-14T22:07:05.521Z,7.95
2022-08-14T22:09:36.981Z,7.55
2022-08-14T22:12:07.363Z,12.40
2022-08-14T22:14:43.284Z,9.93
2022-08-14T22:17:17.259Z,7.57
2022-08-14T22:19:55.035Z,7.80
2022-08-14T22:22:27.344Z,10.20
2022-08-14T22:24:59.971Z,10.10
2022-08-14T22:27:32.611Z,8.52
2022-08-14T22:30:02.376Z,11.40
2022-08-14T22:32:35.259Z,10.40
2022-08-14T22:35:23.549Z,12.38
2022-08-14T22:38:36.309Z,9.63
2022-08-14T22:41:09.177Z,13.57
2022-08-14T22:43:35.934Z,10.35
2022-08-14T22:46:15.156Z,11.63
2022-08-14T22:48:49.828Z,12.15
2022-08-14T22:51:21.822Z,11.45
2022-08-14T22:53:55.000Z,10.20
2022-08-14T22:56:29.358Z,12.10
2022-08-14T22:58:59.818Z,9.00
2022-08-14T23:01:56.239Z,9.75
2022-08-14T23:04:35.823Z,9.25
2022-08-14T23:07:21.797Z,11.23
2022-08-14T23:09:56.434Z,11.23
2022-08-14T23:12:31.607Z,10.50
2022-08-14T23:15:01.170Z,12.13
2022-08-14T23:17:38.762Z,10.90
2022-08-14T23:20:19.320Z,10.23
2022-08-14T23:22:51.290Z,10.27
2022-08-14T23:25:57.954Z,11.27
2022-08-14T23:28:34.157Z,11.80
2022-08-14T23:31:08.191Z,11.40
2022-08-14T23:33:46.144Z,13.15
2022-08-14T23:36:31.583Z,10.43
2022-08-14T23:39:10.192Z,10.07
2022-08-14T23:41:46.416Z,11.75
2022-08-14T23:44:24.517Z,11.27
2022-08-14T23:46:57.088Z,11.07
2022-08-14T23:49:59.795Z,11.20
2022-08-14T23:52:50.677Z,10.70
2022-08-14T23:55:11.307Z,10.35
2022-08-14T23:57:44.056Z,13.13
